Flight Track Log - Related Links

Times and Time Zones

All times are in EDT time to prevent confusion due to time zone crossing. See the CCA1478 flight status page for this flight to view local times or setup timezone preferences in your user account.

Time Position Orientation Groundspeed Altitude Reporting Facility
EDT Latitude Longitude Course Direction KTS MPH feet Rate Location/Type
Tue 10:15:00 AM 43.9063 87.9636 90° East  Level Estimated
Tue 10:16:00 AM 43.9056 88.1267 90° East  Level Estimated
Tue 10:17:00 AM 43.9047 88.2899 90° East  Level Estimated
Tue 10:18:00 AM 43.9035 88.4530 91° East  Level Estimated
Tue 10:19:00 AM 43.9020 88.6161 91° East  Level Estimated
Tue 10:20:00 AM 43.9004 88.7792 91° East  Level Estimated
Tue 10:21:00 AM 43.8985 88.9422 91° East  Level Estimated
Tue 10:22:00 AM 43.8964 89.1053 91° East  Level Estimated
Tue 10:23:00 AM 43.8940 89.2684 91° East  Level Estimated
Tue 10:24:00 AM 43.8915 89.4314 91° East  Level Estimated
Tue 10:25:00 AM 43.8886 89.5945 91° East  Level Estimated
Tue 10:26:00 AM 43.8856 89.7575 91° East  Level Estimated
Tue 10:27:00 AM 43.8823 89.9205 92° East  Level Estimated
Tue 10:28:00 AM 43.8788 90.0835 92° East  Level Estimated
Tue 10:29:00 AM 43.8751 90.2464 92° East  Level Estimated
Tue 10:30:00 AM 43.8711 90.4093 92° East  Level Estimated
Tue 10:31:00 AM 43.8669 90.5723 92° East  Level Estimated
Tue 10:32:00 AM 43.8625 90.7352 92° East  Level Estimated
Tue 10:33:00 AM 43.8578 90.8980 92° East  Level Estimated
Tue 10:34:00 AM 43.8529 91.0609 92° East  Level Estimated
Tue 10:35:00 AM 43.8478 91.2237 92° East  Level Estimated
Tue 10:36:00 AM 43.8424 91.3865 93° East  Level Estimated
Tue 10:37:00 AM 43.8369 91.5492 93° East  Level Estimated
Tue 10:38:00 AM 43.8310 91.7120 93° East  Level Estimated
Tue 10:39:00 AM 43.8250 91.8747 93° East  Level Estimated
Tue 10:40:00 AM 43.8187 92.0373 93° East  Level Estimated
Tue 10:41:00 AM 43.8122 92.2000 93° East  Level Estimated
Tue 10:42:00 AM 43.8055 92.3625 93° East  Level Estimated
Tue 10:43:00 AM 43.7985 92.5251 93° East  Level Estimated
Tue 10:44:00 AM 43.7913 92.6876 93° East  Level Estimated
Tue 10:45:00 AM 43.7839 92.8501 94° East  Level Estimated
Tue 10:46:00 AM 43.7762 93.0125 94° East  Level Estimated
Tue 10:47:00 AM 43.7683 93.1749 94° East  Level Estimated
Tue 10:48:00 AM 43.7602 93.3372 94° East  Level Estimated
Tue 10:49:00 AM 43.7518 93.4995 94° East  Level Estimated
Tue 10:50:00 AM 43.7433 93.6618 94° East  Level Estimated
Tue 10:51:00 AM 43.7345 93.8240 94° East  Level Estimated
Tue 10:52:00 AM 43.7254 93.9862 94° East  Level Estimated
Tue 10:53:00 AM 43.7161 94.1483 94° East  Level Estimated
Tue 10:54:00 AM 43.7066 94.3103 95° East  Level Estimated
Tue 10:55:00 AM 43.6969 94.4724 95° East  Level Estimated
Tue 10:56:00 AM 43.6870 94.6343 95° East  Level Estimated
Tue 10:57:00 AM 43.6768 94.7962 95° East  Level Estimated
Tue 10:58:00 AM 43.6664 94.9581 95° East  Level Estimated
Tue 10:59:00 AM 43.6557 95.1199 95° East  Level Estimated
Tue 11:00:00 AM 43.6449 95.2816 95° East  Level Estimated
Tue 11:01:00 AM 43.6338 95.4433 95° East  Level Estimated
Tue 11:02:00 AM 43.6224 95.6049 95° East  Level Estimated
Tue 11:03:00 AM 43.6109 95.7664 96° East  Level Estimated
Tue 11:04:00 AM 43.5991 95.9279 96° East  Level Estimated
Tue 11:05:00 AM 43.5871 96.0893 96° East  Level Estimated
Tue 11:06:00 AM 43.5748 96.2507 96° East  Level Estimated
Tue 11:07:00 AM 43.5624 96.4120 96° East  Level Estimated
Tue 11:08:00 AM 43.5497 96.5732 96° East  Level Estimated
Tue 11:09:00 AM 43.5368 96.7344 96° East  Level Estimated
Tue 11:10:00 AM 43.5237 96.8954 96° East  Level Estimated
Tue 11:11:00 AM 43.5103 97.0565 96° East  Level Estimated
Tue 11:12:00 AM 43.4967 97.2174 97° East  Level Estimated
Tue 11:13:00 AM 43.4829 97.3783 97° East  Level Estimated
Tue 11:14:00 AM 43.4688 97.5391 97° East  Level Estimated
Tue 11:15:00 AM 43.4546 97.6998 97° East  Level Estimated
Tue 11:16:00 AM 43.4401 97.8605 97° East  Level Estimated
Tue 11:17:00 AM 43.4254 98.0210 97° East  Level Estimated
Tue 11:18:00 AM 43.4104 98.1815 97° East  Level Estimated
Tue 11:19:00 AM 43.3952 98.3419 97° East  Level Estimated
Tue 11:20:00 AM 43.3798 98.5023 97° East  Level Estimated
Tue 11:21:00 AM 43.3642 98.6625 98° East  Level Estimated
Tue 11:22:00 AM 43.3484 98.8227 98° East  Level Estimated
Tue 11:23:00 AM 43.3323 98.9827 98° East  Level Estimated
Tue 11:24:00 AM 43.3160 99.1427 98° East  Level Estimated
Tue 11:25:00 AM 43.2995 99.3026 98° East  Level Estimated
Tue 11:26:00 AM 43.2828 99.4625 98° East  Level Estimated
Tue 11:27:00 AM 43.2659 99.6222 98° East  Level Estimated
Tue 11:28:00 AM 43.2487 99.7818 98° East  Level Estimated
Tue 11:29:00 AM 43.2313 99.9414 98° East  Level Estimated
Tue 11:30:00 AM 43.2136 100.1008 99° East  Level Estimated
Tue 11:31:00 AM 43.1958 100.2602 99° East  Level Estimated
Tue 11:32:00 AM 43.1777 100.4195 99° East  Level Estimated
Tue 11:33:00 AM 43.1595 100.5787 99° East  Level Estimated
Tue 11:34:00 AM 43.1410 100.7377 99° East  Level Estimated
Tue 11:35:00 AM 43.1222 100.8967 99° East  Level Estimated
Tue 11:36:00 AM 43.1033 101.0556 99° East  Level Estimated
Tue 11:37:00 AM 43.0841 101.2144 99° East  Level Estimated
Tue 11:38:00 AM 43.0648 101.3731 99° East  Level Estimated
Tue 11:39:00 AM 43.0452 101.5317 100° East  Level Estimated
Tue 11:40:00 AM 43.0253 101.6902 100° East  Level Estimated
Tue 11:41:00 AM 43.0053 101.8486 100° East  Level Estimated
Tue 11:42:00 AM 42.9851 102.0068 100° East  Level Estimated
Tue 11:43:00 AM 42.9646 102.1650 100° East  Level Estimated
Tue 11:44:00 AM 42.9439 102.3231 100° East  Level Estimated
Tue 11:45:00 AM 42.9230 102.4810 100° East  Level Estimated
Tue 11:46:00 AM 42.9019 102.6389 100° East  Level Estimated
Tue 11:47:00 AM 42.8805 102.7967 100° East  Level Estimated
Tue 11:48:00 AM 42.8590 102.9543 101° East  Level Estimated
Tue 11:49:00 AM 42.8372 103.1118 101° East  Level Estimated
Tue 11:50:00 AM 42.8152 103.2692 101° East  Level Estimated
Tue 11:51:00 AM 42.7930 103.4265 101° East  Level Estimated
Tue 11:52:00 AM 42.7705 103.5837 101° East  Level Estimated
Tue 11:53:00 AM 42.7479 103.7408 101° East  Level Estimated
Tue 11:54:00 AM 42.7251 103.8978 101° East  Level Estimated
Tue 11:55:00 AM 42.7020 104.0546 101° East  Level Estimated
Tue 11:56:00 AM 42.6787 104.2113 101° East  Level Estimated
Tue 11:57:00 AM 42.6552 104.3679 101° East  Level Estimated
Tue 11:58:00 AM 42.6315 104.5244 102° East  Level Estimated
Tue 11:59:00 AM 42.6076 104.6808 102° East  Level Estimated
Tue 12:00:00 PM 42.5835 104.8371 102° East  Level Estimated
Tue 12:01:00 PM 42.5591 104.9932 102° East  Level Estimated
Tue 12:02:00 PM 42.5346 105.1492 102° East  Level Estimated
Tue 12:03:00 PM 42.5098 105.3051 102° East  Level Estimated
Tue 12:04:00 PM 42.4848 105.4608 102° East  Level Estimated
Tue 12:05:00 PM 42.4596 105.6165 102° East  Level Estimated
Tue 12:06:00 PM 42.4342 105.7720 102° East  Level Estimated
Tue 12:07:00 PM 42.4086 105.9274 103° East  Level Estimated
Tue 12:08:00 PM 42.3828 106.0826 103° East  Level Estimated
Tue 12:09:00 PM 42.3568 106.2377 103° East  Level Estimated
Tue 12:10:00 PM 42.3305 106.3927 103° East  Level Estimated
Tue 12:11:00 PM 42.3041 106.5476 103° East  Level Estimated
Tue 12:12:00 PM 42.2774 106.7023 103° East  Level Estimated
Tue 12:13:00 PM 42.2506 106.8569 103° East  Level Estimated
Tue 12:14:00 PM 42.2235 107.0114 103° East  Level Estimated
Tue 12:15:00 PM 42.1962 107.1658 103° East  Level Estimated
Tue 12:16:00 PM 42.1687 107.3200 103° East  Level Estimated
Tue 12:17:00 PM 42.1410 107.4740 104° East  Level Estimated
Tue 12:18:00 PM 42.1131 107.6280 104° East  Level Estimated
Tue 12:19:00 PM 42.0850 107.7818 104° East  Level Estimated
Tue 12:20:00 PM 42.0567 107.9354 104° East  Level Estimated
Tue 12:21:00 PM 42.0282 108.0890 104° East  Level Estimated
Tue 12:22:00 PM 41.9995 108.2424 104° East  Level Estimated
Tue 12:23:00 PM 41.9706 108.3956 104° East  Level Estimated
Tue 12:24:00 PM 41.9415 108.5487 104° East  Level Estimated
Tue 12:25:00 PM 41.9121 108.7017 104° East  Level Estimated
Tue 12:26:00 PM 41.8826 108.8545 105° East  Level Estimated
Tue 12:27:00 PM 41.8529 109.0072 105° East  Level Estimated
Tue 12:28:00 PM 41.8229 109.1598 105° East  Level Estimated
Tue 12:29:00 PM 41.7928 109.3121 105° East  Level Estimated
Tue 12:30:00 PM 41.7625 109.4644 105° East  Level Estimated
Tue 12:31:00 PM 41.7319 109.6165 105° East  Level Estimated
Tue 12:32:00 PM 41.7012 109.7685 105° East  Level Estimated
Tue 12:33:00 PM 41.6703 109.9203 105° East  Level Estimated
Tue 12:34:00 PM 41.6391 110.0720 105° East  Level Estimated
Tue 12:35:00 PM 41.6078 110.2235 105° East  Level Estimated
Tue 12:36:00 PM 41.5762 110.3749 106° East  Level Estimated
Tue 12:37:00 PM 41.5445 110.5261 106° East  Level Estimated
Tue 12:38:00 PM 41.5126 110.6772 106° East  Level Estimated
Tue 12:39:00 PM 41.4805 110.8282 106° East  Level Estimated
Tue 12:40:00 PM 41.4481 110.9790 106° East  Level Estimated
Tue 12:41:00 PM 41.4156 111.1296 106° East  Level Estimated
Tue 12:42:00 PM 41.3829 111.2801 106° East  Level Estimated
Tue 12:43:00 PM 41.3500 111.4304 106° East  Level Estimated
Tue 12:44:00 PM 41.3169 111.5806 106° East  Level Estimated
Tue 12:45:00 PM 41.2836 111.7306 106° East  Level Estimated
Tue 12:46:00 PM 41.2501 111.8805 107° East  Level Estimated
Tue 12:47:00 PM 41.2164 112.0302 107° East  Level Estimated
Tue 12:48:00 PM 41.1825 112.1797 107° East  Level Estimated
Tue 12:49:00 PM 41.1484 112.3292 107° East  Level Estimated
Tue 12:50:00 PM 41.1141 112.4784 107° East  Level Estimated
Tue 12:51:00 PM 41.0797 112.6275 107° East  Level Estimated
Tue 12:52:00 PM 41.0450 112.7765 107° East  Level Estimated
Tue 12:53:00 PM 41.0102 112.9252 107° East  Level Estimated
Tue 12:54:00 PM 40.9751 113.0739 107° East  Level Estimated
Tue 12:55:00 PM 40.9399 113.2223 107° East  Level Estimated
Tue 12:56:00 PM 40.9045 113.3706 107° East  Level Estimated
Tue 12:57:00 PM 40.8689 113.5188 108° East  Level Estimated
Tue 12:58:00 PM 40.8331 113.6668 108° East  Level Estimated
Tue 12:59:00 PM 40.7971 113.8146 108° East  Level Estimated
Tue 01:00:00 PM 40.7609 113.9623 108° East  Level Estimated
Tue 01:01:00 PM 40.7245 114.1098 108° East  Level Estimated
Tue 01:02:00 PM 40.6880 114.2571 108° East  Level Estimated
Tue 01:03:00 PM 40.6512 114.4043 108° East  Level Estimated
Tue 01:04:00 PM 40.6143 114.5513 108° East  Level Estimated
Tue 01:05:00 PM 40.5772 114.6982 108° East  Level Estimated
Tue 01:06:00 PM 40.5399 114.8449 108° East  Level Estimated
Tue 01:07:00 PM 40.5024 114.9914 109° East  Level Estimated
Tue 01:08:00 PM 40.4647 115.1378 109° East  Level Estimated
Tue 01:09:00 PM 40.4269 115.2840 109° East  Level Estimated
Tue 01:10:00 PM 40.3889 115.4300 109° East  Level Estimated
Tue 01:11:00 PM 40.3506 115.5759 109° East  Level Estimated
Tue 01:12:00 PM 40.3122 115.7216 109° East  Level Estimated
Tue 01:13:00 PM 40.2736 115.8672 109° East  Level Estimated
Tue 01:14:00 PM 40.2349 116.0125 109° East  Level Estimated
Tue 01:15:00 PM 40.1959 116.1578 109° East  Level Estimated
Tue 01:16:00 PM 40.1568 116.3028 109° East  Level Estimated
Tue 01:17:00 PM 40.1175 116.4477 109° East  Level Estimated
Tue 01:18:00 PM 40.0801 116.5846 110° East  Level Estimated
Tue 01:19:00 PM 40.0801 116.5846 288° West  Level Estimated
Tue 01:20:00 PM 40.0801 116.5846 288° West  Level Estimated
Tue 01:21:00 PM 40.0801 116.5846 288° West  Level Estimated
Tue 01:22:00 PM 40.0801 116.5846 288° West  Level Estimated
Tue 01:23:00 PM 40.0801 116.5846 288° West  Level Estimated
Tue 01:24:00 PM 40.0801 116.5846 288° West  Level Estimated

Login

Don't have an account? Register now (free) for customized features, flight alerts, and more!